PWSweather.com
Personal Weather Stations
Station Observations
PENICUIKWS
PenicuikGB

PenicuikGB

Lat: 55.830932, Lon: -3.224533000000065

Elevation: 166

Station Type: Fine Offset

http://weather.penicuik.org

High Low Average
Temperature 70.2°F21.2°C 53.6°F12.0°C 60.5°F15.8°C
Dew Point 61.4°F16.3°C 51.0°F10.6°C 55.6°F13.1°C
Winds 13.0 mph 20.9 kmh Calm Calm 2.0 mph S3.2 kmh S
Wind Gusts 13.0 mph20.9 kmh -- 4.0 mph6.4 kmh
Humidity 96% 58% 85%
Pressure 29.52 in999.7 mb 29.35 in993.9 mb -
Precipitation 0.32 in8.1 mm - -
Hour Temp Dew Point Humidity Winds Wind Gusts Pressure Precip Precip Rate Daily Precip Total
12:00 AM 60.8°F16.0°C 52.8°F11.6°C 75% 5.9 mph S9.5 kmh S 10.7 mph17.2 kmh 29.51 in999.3 mb 0.00 in0.0 mm 0.00 in0.0 mm 0.00 in0.0 mm
12:30 AM 60.6°F15.9°C 53.0°F11.7°C 76% 3.8 mph E6.1 kmh E 9.2 mph14.8 kmh 29.51 in999.3 mb 0.00 in0.0 mm 0.00 in0.0 mm 0.00 in0.0 mm
12:45 AM 60.1°F15.6°C 52.9°F11.6°C 77% 2.8 mph N4.5 kmh N 5.4 mph8.7 kmh 29.51 in999.3 mb 0.00 in0.0 mm 0.00 in0.0 mm 0.00 in0.0 mm
01:00 AM 60.1°F15.6°C 53.6°F12.0°C 79% 3.5 mph N5.6 kmh N 6.0 mph9.7 kmh 29.51 in999.3 mb 0.00 in0.0 mm 0.00 in0.0 mm 0.00 in0.0 mm
01:15 AM 60.3°F15.7°C 53.7°F12.1°C 79% 4.6 mph N7.4 kmh N 7.6 mph12.2 kmh 29.50 in999.0 mb 0.00 in0.0 mm 0.00 in0.0 mm 0.00 in0.0 mm
01:30 AM 60.1°F15.6°C 53.9°F12.2°C 80% 3.0 mph NNW4.8 kmh NNW 5.4 mph8.7 kmh 29.49 in998.6 mb 0.00 in0.0 mm 0.00 in0.0 mm 0.00 in0.0 mm
02:00 AM 59.2°F15.1°C 53.7°F12.1°C 82% 1.8 mph WNW2.9 kmh WNW 3.8 mph6.1 kmh 29.49 in998.6 mb 0.00 in0.0 mm 0.00 in0.0 mm 0.00 in0.0 mm
02:15 AM 57.9°F14.4°C 53.1°F11.7°C 84% 0.2 mph WSW0.3 kmh WSW 0.7 mph1.1 kmh 29.47 in998.0 mb 0.00 in0.0 mm 0.00 in0.0 mm 0.00 in0.0 mm
02:30 AM 57.4°F14.1°C 53.2°F11.8°C 86% Calm Calm -- 29.46 in997.6 mb 0.00 in0.0 mm 0.00 in0.0 mm 0.00 in0.0 mm
02:45 AM 57.7°F14.3°C 54.2°F12.3°C 88% Calm Calm -- 29.46 in997.6 mb 0.00 in0.0 mm 0.00 in0.0 mm 0.00 in0.0 mm
03:00 AM 57.9°F14.4°C 54.7°F12.6°C 89% Calm Calm -- 29.46 in997.6 mb 0.00 in0.0 mm 0.00 in0.0 mm 0.00 in0.0 mm
03:30 AM 59.2°F15.1°C 56.0°F13.3°C 89% 1.0 mph NNW1.6 kmh NNW 2.2 mph3.5 kmh 29.44 in997.0 mb 0.00 in0.0 mm 0.00 in0.0 mm 0.00 in0.0 mm
03:45 AM 58.1°F14.5°C 54.6°F12.6°C 88% 0.2 mph WSW0.3 kmh WSW 1.6 mph2.6 kmh 29.44 in997.0 mb 0.00 in0.0 mm 0.00 in0.0 mm 0.00 in0.0 mm
04:00 AM 57.0°F13.9°C 54.1°F12.3°C 90% 0.6 mph SW1.0 kmh SW 1.6 mph2.6 kmh 29.42 in996.3 mb 0.00 in0.0 mm 0.00 in0.0 mm 0.00 in0.0 mm
04:15 AM 57.2°F14.0°C 54.6°F12.6°C 91% 0.3 mph NW0.5 kmh NW 1.6 mph2.6 kmh 29.41 in995.9 mb 0.00 in0.0 mm 0.00 in0.0 mm 0.00 in0.0 mm
04:45 AM 58.8°F14.9°C 56.2°F13.4°C 91% 1.5 mph NNW2.4 kmh NNW 3.8 mph6.1 kmh 29.40 in995.6 mb 0.00 in0.0 mm 0.00 in0.0 mm 0.00 in0.0 mm
05:00 AM 59.2°F15.1°C 56.0°F13.3°C 89% 1.3 mph SW2.1 kmh SW 3.1 mph5.0 kmh 29.39 in995.3 mb 0.00 in0.0 mm 0.00 in0.0 mm 0.00 in0.0 mm
05:15 AM 59.0°F15.0°C 55.5°F13.1°C 88% 1.1 mph NW1.8 kmh NW 2.2 mph3.5 kmh 29.38 in994.9 mb 0.00 in0.0 mm 0.00 in0.0 mm 0.00 in0.0 mm
05:30 AM 59.0°F15.0°C 55.5°F13.1°C 88% 1.9 mph NW3.1 kmh NW 6.0 mph9.7 kmh 29.38 in994.9 mb 0.00 in0.0 mm 0.00 in0.0 mm 0.00 in0.0 mm
05:45 AM 59.4°F15.2°C 55.5°F13.1°C 87% 1.9 mph W3.1 kmh W 6.0 mph9.7 kmh 29.38 in994.9 mb 0.00 in0.0 mm 0.00 in0.0 mm 0.00 in0.0 mm
06:00 AM 59.4°F15.2°C 55.5°F13.1°C 87% 2.1 mph WSW3.4 kmh WSW 4.5 mph7.2 kmh 29.37 in994.6 mb 0.00 in0.0 mm 0.00 in0.0 mm 0.00 in0.0 mm
06:30 AM 58.6°F14.8°C 55.4°F13.0°C 89% 1.3 mph NW2.1 kmh NW 3.1 mph5.0 kmh 29.38 in994.9 mb 0.00 in0.0 mm 0.00 in0.0 mm 0.00 in0.0 mm
06:45 AM 58.6°F14.8°C 55.7°F13.2°C 90% 1.0 mph NNW1.6 kmh NNW 2.2 mph3.5 kmh 29.36 in994.2 mb 0.00 in0.0 mm 0.00 in0.0 mm 0.00 in0.0 mm
07:00 AM 58.5°F14.7°C 55.9°F13.3°C 91% 1.1 mph NW1.8 kmh NW 1.6 mph2.6 kmh 29.36 in994.2 mb 0.01 in0.3 mm 0.01 in0.3 mm 0.01 in0.3 mm
07:15 AM 58.5°F14.7°C 56.2°F13.4°C 92% 0.4 mph N0.6 kmh N 0.7 mph1.1 kmh 29.36 in994.2 mb 0.01 in0.3 mm 0.00 in0.0 mm 0.01 in0.3 mm
07:30 AM 58.8°F14.9°C 56.8°F13.8°C 93% Calm Calm -- 29.36 in994.2 mb 0.01 in0.3 mm 0.00 in0.0 mm 0.01 in0.3 mm
07:45 AM 59.2°F15.1°C 56.9°F13.8°C 92% 0.3 mph N0.5 kmh N 1.6 mph2.6 kmh 29.35 in993.9 mb 0.01 in0.3 mm 0.00 in0.0 mm 0.01 in0.3 mm
08:15 AM 60.1°F15.6°C 57.8°F14.3°C 92% 0.5 mph WSW0.8 kmh WSW 1.6 mph2.6 kmh 29.36 in994.2 mb 0.00 in0.0 mm 0.00 in0.0 mm 0.01 in0.3 mm
08:30 AM 60.4°F15.8°C 58.4°F14.7°C 93% 0.4 mph N0.6 kmh N 2.2 mph3.5 kmh 29.35 in993.9 mb 0.00 in0.0 mm 0.00 in0.0 mm 0.01 in0.3 mm
08:45 AM 61.3°F16.3°C 58.7°F14.8°C 91% 0.9 mph SE1.4 kmh SE 2.2 mph3.5 kmh 29.35 in993.9 mb 0.00 in0.0 mm 0.00 in0.0 mm 0.01 in0.3 mm
09:00 AM 62.2°F16.8°C 59.3°F15.2°C 90% 1.3 mph SSE2.1 kmh SSE 3.8 mph6.1 kmh 29.35 in993.9 mb 0.00 in0.0 mm 0.00 in0.0 mm 0.01 in0.3 mm
09:15 AM 63.7°F17.6°C 60.1°F15.6°C 88% 0.6 mph S1.0 kmh S 1.6 mph2.6 kmh 29.36 in994.2 mb 0.00 in0.0 mm 0.00 in0.0 mm 0.01 in0.3 mm
09:30 AM 64.0°F17.8°C 59.8°F15.4°C 86% 1.8 mph W2.9 kmh W 3.1 mph5.0 kmh 29.36 in994.2 mb 0.00 in0.0 mm 0.00 in0.0 mm 0.01 in0.3 mm
09:45 AM 64.6°F18.1°C 60.0°F15.6°C 85% 1.1 mph SE1.8 kmh SE 2.2 mph3.5 kmh 29.36 in994.2 mb 0.00 in0.0 mm 0.00 in0.0 mm 0.01 in0.3 mm
10:00 AM 64.6°F18.1°C 59.7°F15.4°C 84% 0.8 mph NW1.3 kmh NW 2.2 mph3.5 kmh 29.36 in994.2 mb 0.00 in0.0 mm 0.00 in0.0 mm 0.01 in0.3 mm
10:15 AM 64.9°F18.3°C 60.3°F15.7°C 85% 1.3 mph NNW2.1 kmh NNW 3.1 mph5.0 kmh 29.36 in994.2 mb 0.00 in0.0 mm 0.00 in0.0 mm 0.01 in0.3 mm
10:30 AM 64.6°F18.1°C 59.7°F15.4°C 84% 2.7 mph SE4.3 kmh SE 4.5 mph7.2 kmh 29.37 in994.6 mb 0.00 in0.0 mm 0.00 in0.0 mm 0.01 in0.3 mm
10:45 AM 64.0°F17.8°C 59.8°F15.4°C 86% 2.1 mph NE3.4 kmh NE 3.8 mph6.1 kmh 29.37 in994.6 mb 0.00 in0.0 mm 0.00 in0.0 mm 0.01 in0.3 mm
11:00 AM 64.0°F17.8°C 60.4°F15.8°C 88% 2.5 mph W4.0 kmh W 4.5 mph7.2 kmh 29.38 in994.9 mb 0.00 in0.0 mm 0.00 in0.0 mm 0.01 in0.3 mm
11:15 AM 63.9°F17.7°C 59.6°F15.3°C 86% 2.2 mph W3.5 kmh W 3.8 mph6.1 kmh 29.38 in994.9 mb 0.00 in0.0 mm 0.00 in0.0 mm 0.01 in0.3 mm
11:30 AM 64.0°F17.8°C 59.8°F15.4°C 86% 2.9 mph NW4.7 kmh NW 4.5 mph7.2 kmh 29.38 in994.9 mb 0.00 in0.0 mm 0.00 in0.0 mm 0.01 in0.3 mm
11:45 AM 65.7°F18.7°C 61.4°F16.3°C 86% 2.9 mph N4.7 kmh N 5.4 mph8.7 kmh 29.37 in994.6 mb 0.00 in0.0 mm 0.00 in0.0 mm 0.01 in0.3 mm
11:59 AM 70.2°F21.2°C 60.7°F15.9°C 72% 4.6 mph NNW7.4 kmh NNW 7.6 mph12.2 kmh 29.38 in994.9 mb 0.00 in0.0 mm 0.00 in0.0 mm 0.01 in0.3 mm
12:00 PM 70.2°F21.2°C 60.7°F15.9°C 72% 4.6 mph NNW7.4 kmh NNW 7.6 mph12.2 kmh 29.38 in994.9 mb 0.00 in0.0 mm 0.00 in0.0 mm 0.01 in0.3 mm
12:28 PM 66.6°F19.2°C 59.5°F15.3°C 78% 4.5 mph SSE7.2 kmh SSE 4.5 mph7.2 kmh 29.39 in995.3 mb 0.00 in0.0 mm 0.00 in0.0 mm 0.01 in0.3 mm
12:58 PM 69.6°F20.9°C 61.0°F16.1°C 74% 13.0 mph NW20.9 kmh NW 13.0 mph20.9 kmh 29.41 in995.9 mb 0.00 in0.0 mm 0.00 in0.0 mm 0.01 in0.3 mm
01:28 PM 66.6°F19.2°C 55.7°F13.2°C 68% 6.9 mph N11.1 kmh N 6.9 mph11.1 kmh 29.45 in997.3 mb 0.00 in0.0 mm 0.00 in0.0 mm 0.01 in0.3 mm
01:58 PM 68.2°F20.1°C 53.8°F12.1°C 60% 3.8 mph SW6.1 kmh SW 3.8 mph6.1 kmh 29.47 in998.0 mb 0.00 in0.0 mm 0.00 in0.0 mm 0.01 in0.3 mm
02:28 PM 68.0°F20.0°C 52.7°F11.5°C 58% 3.8 mph S6.1 kmh S 3.8 mph6.1 kmh 29.46 in997.6 mb 0.00 in0.0 mm 0.00 in0.0 mm 0.01 in0.3 mm
02:58 PM 67.1°F19.5°C 51.8°F11.0°C 58% 8.3 mph SE13.4 kmh SE 8.3 mph13.4 kmh 29.45 in997.3 mb 0.00 in0.0 mm 0.00 in0.0 mm 0.01 in0.3 mm
03:28 PM 63.7°F17.6°C 52.9°F11.6°C 68% 5.4 mph NW8.7 kmh NW 5.4 mph8.7 kmh 29.47 in998.0 mb 0.00 in0.0 mm 0.00 in0.0 mm 0.01 in0.3 mm
03:58 PM 62.8°F17.1°C 52.5°F11.4°C 69% 2.2 mph S3.5 kmh S 2.2 mph3.5 kmh 29.49 in998.6 mb 0.00 in0.0 mm 0.00 in0.0 mm 0.01 in0.3 mm
04:28 PM 61.9°F16.6°C 52.8°F11.6°C 72% 3.1 mph E5.0 kmh E 3.1 mph5.0 kmh 29.50 in999.0 mb 0.00 in0.0 mm 0.00 in0.0 mm 0.01 in0.3 mm
04:58 PM 59.9°F15.5°C 52.7°F11.5°C 77% 2.2 mph SE3.5 kmh SE 2.2 mph3.5 kmh 29.49 in998.6 mb 0.00 in0.0 mm 0.00 in0.0 mm 0.01 in0.3 mm
05:28 PM 59.2°F15.1°C 52.3°F11.3°C 78% 5.4 mph SE8.7 kmh SE 5.4 mph8.7 kmh 29.50 in999.0 mb 0.00 in0.0 mm 0.00 in0.0 mm 0.01 in0.3 mm
05:58 PM 58.8°F14.9°C 53.3°F11.8°C 82% 2.2 mph NE3.5 kmh NE 2.2 mph3.5 kmh 29.49 in998.6 mb 0.00 in0.0 mm 0.00 in0.0 mm 0.01 in0.3 mm
06:28 PM 58.1°F14.5°C 55.2°F12.9°C 90% 1.6 mph N2.6 kmh N 1.6 mph2.6 kmh 29.49 in998.6 mb 0.17 in4.3 mm 0.34 in8.6 mm 0.18 in4.6 mm
06:58 PM 56.1°F13.4°C 54.4°F12.4°C 94% 1.6 mph N2.6 kmh N 1.6 mph2.6 kmh 29.48 in998.3 mb 0.14 in3.6 mm 0.00 in0.0 mm 0.32 in8.1 mm
07:28 PM 54.9°F12.7°C 53.2°F11.8°C 94% 2.2 mph W3.5 kmh W 2.2 mph3.5 kmh 29.50 in999.0 mb 0.00 in0.0 mm 0.00 in0.0 mm 0.32 in8.1 mm
07:58 PM 55.2°F12.9°C 53.8°F12.1°C 95% 1.6 mph N2.6 kmh N 1.6 mph2.6 kmh 29.49 in998.6 mb 0.00 in0.0 mm 0.00 in0.0 mm 0.32 in8.1 mm
08:28 PM 55.0°F12.8°C 53.9°F12.2°C 96% 3.1 mph SE5.0 kmh SE 3.1 mph5.0 kmh 29.50 in999.0 mb 0.00 in0.0 mm 0.00 in0.0 mm 0.32 in8.1 mm
08:58 PM 54.9°F12.7°C 53.7°F12.1°C 96% 2.2 mph N3.5 kmh N 2.2 mph3.5 kmh 29.51 in999.3 mb 0.00 in0.0 mm 0.00 in0.0 mm 0.32 in8.1 mm
09:28 PM 55.2°F12.9°C 54.1°F12.3°C 96% 3.1 mph S5.0 kmh S 3.1 mph5.0 kmh 29.52 in999.7 mb 0.00 in0.0 mm 0.00 in0.0 mm 0.32 in8.1 mm
09:58 PM 54.5°F12.5°C 52.8°F11.6°C 94% 2.2 mph SW3.5 kmh SW 2.2 mph3.5 kmh 29.52 in999.7 mb 0.00 in0.0 mm 0.00 in0.0 mm 0.32 in8.1 mm
10:28 PM 53.8°F12.1°C 51.5°F10.8°C 92% 3.1 mph E5.0 kmh E 3.1 mph5.0 kmh 29.52 in999.7 mb 0.00 in0.0 mm 0.00 in0.0 mm 0.32 in8.1 mm
10:58 PM 53.6°F12.0°C 51.0°F10.6°C 91% 2.2 mph N3.5 kmh N 2.2 mph3.5 kmh 29.52 in999.7 mb 0.00 in0.0 mm 0.00 in0.0 mm 0.32 in8.1 mm
11:28 PM 54.0°F12.2°C 51.7°F10.9°C 92% 3.8 mph NW6.1 kmh NW 3.8 mph6.1 kmh 29.52 in999.7 mb 0.00 in0.0 mm 0.00 in0.0 mm 0.18 in4.6 mm
11:58 PM 54.3°F12.4°C 51.4°F10.8°C 90% 5.4 mph SW8.7 kmh SW 5.4 mph8.7 kmh 29.51 in999.3 mb 0.00 in0.0 mm 0.00 in0.0 mm 0.18 in4.6 mm